createdAt,value
2023-01-28T00:01:57.327Z,11.77
2023-01-28T00:04:24.478Z,10.82
2023-01-28T00:06:51.531Z,10.02
2023-01-28T00:09:18.736Z,11.98
2023-01-28T00:11:45.745Z,11.05
2023-01-28T00:14:13.105Z,10.95
2023-01-28T00:16:40.159Z,12.57
2023-01-28T00:19:07.550Z,11.70
2023-01-28T00:21:34.867Z,11.40
2023-01-28T00:24:02.316Z,10.88
2023-01-28T00:26:29.393Z,10.45
2023-01-28T00:28:56.428Z,11.50
2023-01-28T00:31:27.443Z,11.63
2023-01-28T00:33:56.210Z,12.05
2023-01-28T00:36:25.201Z,13.18
2023-01-28T00:38:57.696Z,12.35
2023-01-28T00:41:30.348Z,11.38
2023-01-28T00:43:57.820Z,12.70
2023-01-28T00:46:28.068Z,12.32
2023-01-28T00:48:55.539Z,10.07
2023-01-28T00:51:23.291Z,10.32
2023-01-28T00:53:50.800Z,11.63
2023-01-28T00:56:21.368Z,10.77
2023-01-28T00:58:48.350Z,11.32
2023-01-28T01:01:23.230Z,11.35
2023-01-28T01:03:57.745Z,12.93
2023-01-28T01:06:25.786Z,11.75
2023-01-28T01:08:52.860Z,12.00
2023-01-28T01:11:20.343Z,11.93
2023-01-28T01:13:51.945Z,11.05
2023-01-28T01:16:18.971Z,13.15
2023-01-28T01:18:46.025Z,10.27
2023-01-28T01:21:15.941Z,11.50
2023-01-28T01:23:43.128Z,11.98
2023-01-28T01:26:10.459Z,11.27
2023-01-28T01:28:37.948Z,11.05
2023-01-28T01:31:08.041Z,11.07
2023-01-28T01:33:35.527Z,11.10
2023-01-28T01:36:02.789Z,11.20
2023-01-28T01:38:30.367Z,10.30
2023-01-28T01:41:01.477Z,12.15
2023-01-28T01:43:48.566Z,10.32
2023-01-28T01:46:40.577Z,12.18
2023-01-28T01:49:21.987Z,11.70
2023-01-28T01:51:57.897Z,11.30
2023-01-28T01:54:27.622Z,12.10
2023-01-28T01:56:55.421Z,11.25
2023-01-28T01:59:29.496Z,12.95
2023-01-28T02:01:58.216Z,13.05
2023-01-28T02:04:35.882Z,13.02
2023-01-28T02:07:03.932Z,11.27
2023-01-28T02:09:34.504Z,10.63
2023-01-28T02:12:07.316Z,12.88
2023-01-28T02:14:39.160Z,10.10
2023-01-28T02:17:06.916Z,12.15
2023-01-28T02:20:07.756Z,10.18
2023-01-28T02:22:43.889Z,10.77
2023-01-28T02:25:35.783Z,11.18
2023-01-28T02:28:02.783Z,9.93
2023-01-28T02:30:35.351Z,11.45
2023-01-28T02:33:18.655Z,11.32
2023-01-28T02:35:56.223Z,11.50
2023-01-28T02:38:40.034Z,14.00
2023-01-28T02:41:20.308Z,10.70
2023-01-28T02:43:47.947Z,11.32
2023-01-28T02:46:40.754Z,12.18
2023-01-28T02:49:18.750Z,11.43
2023-01-28T02:52:10.882Z,11.27
2023-01-28T02:54:49.971Z,10.23
2023-01-28T02:57:37.761Z,10.35
2023-01-28T03:00:04.735Z,10.50
2023-01-28T03:02:58.518Z,12.00
2023-01-28T03:05:36.701Z,11.48
2023-01-28T03:08:27.734Z,11.85
2023-01-28T03:11:16.007Z,11.52
2023-01-28T03:14:03.230Z,10.60
2023-01-28T03:16:51.971Z,12.27
2023-01-28T03:19:37.701Z,12.07
2023-01-28T03:22:23.874Z,13.10
2023-01-28T03:25:11.588Z,13.10
2023-01-28T03:28:03.507Z,11.43
2023-01-28T03:31:16.895Z,12.32
2023-01-28T03:34:03.948Z,10.80
2023-01-28T03:36:50.685Z,11.38
2023-01-28T03:39:21.964Z,12.07
2023-01-28T03:41:59.662Z,12.13
2023-01-28T03:44:45.796Z,12.70
2023-01-28T03:47:13.478Z,11.10
2023-01-28T03:49:46.068Z,12.43
2023-01-28T03:52:13.445Z,11.80
2023-01-28T03:54:40.478Z,11.55
2023-01-28T03:57:07.545Z,11.73
2023-01-28T03:59:34.719Z,12.63
2023-01-28T04:02:06.463Z,15.30
2023-01-28T04:04:33.994Z,11.07
2023-01-28T04:07:01.040Z,12.60
2023-01-28T04:09:28.122Z,12.50
2023-01-28T04:11:55.255Z,12.60
2023-01-28T04:14:22.318Z,10.93
2023-01-28T04:16:49.475Z,12.40
2023-01-28T04:19:16.564Z,12.18
2023-01-28T04:21:43.601Z,13.00
2023-01-28T04:24:10.701Z,13.60
2023-01-28T04:26:37.752Z,12.95
2023-01-28T04:29:04.937Z,11.70
2023-01-28T04:31:33.168Z,12.27
2023-01-28T04:34:00.422Z,13.13
2023-01-28T04:36:27.656Z,13.23
2023-01-28T04:38:54.734Z,14.77
2023-01-28T04:41:21.834Z,13.02
2023-01-28T04:43:51.414Z,13.85
2023-01-28T04:46:18.575Z,14.13
2023-01-28T04:48:45.678Z,12.77
2023-01-28T04:51:12.721Z,13.63
2023-01-28T04:53:39.787Z,13.45
2023-01-28T04:56:07.059Z,13.13
2023-01-28T04:58:34.198Z,13.05
2023-01-28T05:01:01.297Z,12.52
2023-01-28T05:03:28.563Z,14.90
2023-01-28T05:05:55.619Z,13.02
2023-01-28T05:08:22.627Z,13.00
2023-01-28T05:10:49.739Z,12.50
2023-01-28T05:13:16.764Z,13.63
2023-01-28T05:15:43.867Z,15.60
2023-01-28T05:18:10.850Z,14.32
2023-01-28T05:20:37.828Z,13.95
2023-01-28T05:23:04.991Z,12.73
2023-01-28T05:25:32.008Z,13.80
2023-01-28T05:27:59.032Z,14.10
2023-01-28T05:30:26.104Z,13.68
2023-01-28T05:32:57.228Z,15.57
2023-01-28T05:35:24.836Z,14.32
2023-01-28T05:37:52.197Z,12.88
2023-01-28T05:40:19.355Z,13.80
2023-01-28T05:42:46.406Z,15.95
2023-01-28T05:45:13.800Z,12.75
2023-01-28T05:47:41.278Z,12.57
2023-01-28T05:50:09.152Z,13.68
2023-01-28T05:52:36.160Z,13.98
2023-01-28T05:55:03.312Z,13.40
2023-01-28T05:57:30.503Z,13.10
2023-01-28T05:59:57.592Z,13.27
2023-01-28T06:02:24.707Z,13.00
2023-01-28T06:04:51.718Z,15.25
2023-01-28T06:07:20.579Z,14.73
2023-01-28T06:09:48.738Z,13.40
2023-01-28T06:12:16.160Z,14.45
2023-01-28T06:14:43.292Z,14.52
2023-01-28T06:17:10.311Z,15.23
2023-01-28T06:19:37.395Z,13.35
2023-01-28T06:22:04.676Z,13.00
2023-01-28T06:24:31.765Z,14.20
2023-01-28T06:26:58.848Z,13.77
2023-01-28T06:29:25.853Z,14.20
2023-01-28T06:31:53.132Z,14.25
2023-01-28T06:34:20.202Z,13.10
2023-01-28T06:36:47.272Z,16.35
2023-01-28T06:39:14.363Z,17.58
2023-01-28T06:41:41.396Z,13.60
2023-01-28T06:44:08.531Z,15.60
2023-01-28T06:46:36.597Z,14.65
2023-01-28T06:49:03.839Z,16.05
2023-01-28T06:51:30.888Z,13.90
2023-01-28T06:53:57.973Z,15.80
2023-01-28T06:56:24.991Z,14.90
2023-01-28T06:58:51.985Z,14.70
2023-01-28T07:01:18.942Z,17.67
2023-01-28T07:03:46.008Z,15.48
2023-01-28T07:06:13.051Z,16.08
2023-01-28T07:08:41.465Z,14.75
2023-01-28T07:11:08.543Z,16.63
2023-01-28T07:13:35.690Z,14.50
2023-01-28T07:16:02.905Z,14.95
2023-01-28T07:18:30.546Z,16.15
2023-01-28T07:20:57.671Z,13.90
2023-01-28T07:23:24.770Z,14.80
2023-01-28T07:25:51.848Z,14.80
2023-01-28T07:28:21.702Z,14.80
2023-01-28T07:30:53.407Z,13.57
2023-01-28T07:33:21.221Z,14.60
2023-01-28T07:35:49.166Z,13.80
2023-01-28T07:38:16.230Z,13.98
2023-01-28T07:40:43.277Z,13.98
2023-01-28T07:43:10.435Z,14.98
2023-01-28T07:45:37.544Z,14.80
2023-01-28T07:48:07.159Z,14.80
2023-01-28T07:50:37.416Z,14.70
2023-01-28T07:53:07.191Z,13.77
2023-01-28T07:55:36.288Z,13.88
2023-01-28T07:58:07.221Z,13.55
2023-01-28T08:00:36.056Z,13.80
2023-01-28T08:03:06.412Z,13.88
2023-01-28T08:05:48.670Z,14.70
2023-01-28T08:08:16.236Z,14.85
2023-01-28T08:10:44.259Z,14.50
2023-01-28T08:13:12.739Z,15.25
2023-01-28T08:15:39.997Z,14.27
2023-01-28T08:18:09.097Z,15.10
2023-01-28T08:20:36.838Z,15.38
2023-01-28T08:23:09.836Z,14.57
2023-01-28T08:25:36.963Z,12.55
2023-01-28T08:28:05.338Z,14.63
2023-01-28T08:30:33.364Z,14.15
2023-01-28T08:33:00.999Z,14.88
2023-01-28T08:35:29.539Z,14.10
2023-01-28T08:37:59.772Z,14.10
2023-01-28T08:40:26.949Z,14.85
2023-01-28T08:42:55.168Z,15.70
2023-01-28T08:45:27.674Z,14.70
2023-01-28T08:48:07.102Z,13.70
2023-01-28T08:50:37.469Z,13.57
2023-01-28T08:53:13.057Z,13.88
2023-01-28T08:55:40.343Z,15.57
2023-01-28T08:58:10.649Z,15.65
2023-01-28T09:00:38.527Z,15.73
2023-01-28T09:03:06.531Z,14.98
2023-01-28T09:05:35.479Z,15.65
2023-01-28T09:08:04.464Z,14.57
2023-01-28T09:10:31.556Z,15.90
2023-01-28T09:12:58.592Z,14.65
2023-01-28T09:15:25.616Z,13.98
2023-01-28T09:17:58.995Z,15.10
2023-01-28T09:20:26.618Z,14.52
2023-01-28T09:22:53.966Z,14.20
2023-01-28T09:25:20.945Z,15.10
2023-01-28T09:27:47.881Z,15.10
2023-01-28T09:30:15.490Z,15.98
2023-01-28T09:32:42.730Z,15.63
2023-01-28T09:35:10.237Z,15.68
2023-01-28T09:37:37.299Z,16.30
2023-01-28T09:40:04.693Z,13.98
2023-01-28T09:42:54.692Z,14.68
2023-01-28T09:45:31.531Z,14.77
2023-01-28T09:48:01.849Z,13.38
2023-01-28T09:50:33.169Z,14.65
2023-01-28T09:53:14.985Z,15.70
2023-01-28T09:55:50.407Z,13.82
2023-01-28T09:58:18.736Z,13.55
2023-01-28T10:01:17.456Z,13.38
2023-01-28T10:03:52.596Z,15.07
2023-01-28T10:06:45.335Z,14.02
2023-01-28T10:09:32.263Z,15.02
2023-01-28T10:11:59.219Z,15.13
2023-01-28T10:14:58.928Z,13.68
2023-01-28T10:17:43.766Z,13.80
2023-01-28T10:20:14.496Z,13.23
2023-01-28T10:22:54.921Z,14.10
2023-01-28T10:25:26.121Z,12.98
2023-01-28T10:27:53.226Z,14.98
2023-01-28T10:30:26.557Z,14.77
2023-01-28T10:32:58.744Z,14.55
2023-01-28T10:35:27.037Z,13.40
2023-01-28T10:38:02.224Z,13.48
2023-01-28T10:40:29.642Z,14.35
2023-01-28T10:42:56.686Z,14.65
2023-01-28T10:45:36.589Z,15.25
2023-01-28T10:48:39.267Z,13.10
2023-01-28T10:51:06.770Z,14.63
2023-01-28T10:53:46.324Z,15.18
2023-01-28T10:56:29.420Z,12.80
2023-01-28T10:59:01.747Z,14.27
2023-01-28T11:02:05.416Z,13.30
2023-01-28T11:04:36.684Z,14.57
2023-01-28T11:07:07.325Z,13.50
2023-01-28T11:09:38.658Z,13.38
2023-01-28T11:12:28.233Z,12.15
2023-01-28T11:15:00.915Z,14.38
2023-01-28T11:17:31.125Z,14.70
2023-01-28T11:20:01.756Z,14.02
2023-01-28T11:22:39.469Z,14.25
2023-01-28T11:25:20.058Z,12.80
2023-01-28T11:27:51.946Z,15.80
2023-01-28T11:30:22.114Z,13.07
2023-01-28T11:32:59.148Z,13.80
2023-01-28T11:35:32.058Z,14.20
2023-01-28T11:38:00.704Z,14.40
2023-01-28T11:40:28.877Z,15.80
2023-01-28T11:42:58.456Z,13.50
2023-01-28T11:45:56.916Z,13.88
2023-01-28T11:48:36.344Z,14.48
2023-01-28T11:51:35.529Z,11.40
2023-01-28T11:54:16.636Z,13.50
2023-01-28T11:56:53.582Z,11.95
2023-01-28T11:59:29.136Z,13.88
2023-01-28T12:02:01.381Z,12.90
2023-01-28T12:04:56.665Z,12.20
2023-01-28T12:07:41.558Z,14.27
2023-01-28T12:10:28.836Z,12.25
2023-01-28T12:13:03.921Z,12.60
2023-01-28T12:15:43.289Z,13.40
2023-01-28T12:18:44.095Z,12.00
2023-01-28T12:21:15.348Z,10.40
2023-01-28T12:24:10.507Z,11.43
2023-01-28T12:27:02.733Z,13.75
2023-01-28T12:29:29.985Z,13.00
2023-01-28T12:32:14.544Z,16.08
2023-01-28T12:35:24.398Z,16.05
2023-01-28T12:38:01.195Z,13.23
2023-01-28T12:40:28.720Z,11.93
2023-01-28T12:43:37.240Z,13.77
2023-01-28T12:46:18.864Z,13.02
2023-01-28T12:48:51.533Z,13.32
2023-01-28T12:51:32.987Z,13.80
2023-01-28T12:54:41.721Z,12.55
2023-01-28T12:57:17.192Z,12.95
2023-01-28T12:59:53.812Z,14.23
2023-01-28T13:02:43.262Z,13.23
2023-01-28T13:05:20.681Z,13.63
2023-01-28T13:08:01.538Z,13.68
2023-01-28T13:10:44.909Z,14.25
2023-01-28T13:13:40.158Z,14.07
2023-01-28T13:16:10.598Z,13.55
2023-01-28T13:18:40.657Z,14.55
2023-01-28T13:21:30.609Z,15.10
2023-01-28T13:24:02.501Z,12.85
2023-01-28T13:26:44.182Z,12.07
2023-01-28T13:29:26.276Z,12.88
2023-01-28T13:31:56.616Z,14.95
2023-01-28T13:34:30.008Z,14.80
2023-01-28T13:36:59.591Z,14.25
2023-01-28T13:39:28.200Z,13.93
2023-01-28T13:42:24.361Z,12.90
2023-01-28T13:44:52.034Z,11.93
2023-01-28T13:47:26.857Z,12.85
2023-01-28T13:49:58.841Z,13.48
2023-01-28T13:52:43.243Z,11.45
2023-01-28T13:55:13.367Z,13.65
2023-01-28T13:58:04.753Z,12.52
2023-01-28T14:01:02.700Z,12.02
2023-01-28T14:04:00.770Z,10.32
2023-01-28T14:06:42.658Z,13.75
2023-01-28T14:09:21.441Z,12.77
2023-01-28T14:12:22.791Z,14.43
2023-01-28T14:15:12.277Z,13.90
2023-01-28T14:17:44.389Z,14.10
2023-01-28T14:20:22.817Z,12.52
2023-01-28T14:22:52.233Z,13.38
2023-01-28T14:25:34.085Z,12.90
2023-01-28T14:28:03.351Z,13.80
2023-01-28T14:30:42.853Z,13.57
2023-01-28T14:33:12.421Z,13.30
2023-01-28T14:35:45.186Z,14.27
2023-01-28T14:38:18.383Z,13.85
2023-01-28T14:40:46.127Z,14.35
2023-01-28T14:43:21.678Z,14.25
2023-01-28T14:46:14.478Z,13.85
2023-01-28T14:49:00.275Z,14.68
2023-01-28T14:51:52.205Z,16.30
2023-01-28T14:54:37.824Z,14.95
2023-01-28T14:57:14.008Z,15.77
2023-01-28T14:59:52.783Z,14.32
2023-01-28T15:02:23.348Z,15.27
2023-01-28T15:04:52.526Z,14.20
2023-01-28T15:07:25.319Z,15.88
2023-01-28T15:10:07.551Z,14.90
2023-01-28T15:12:41.361Z,14.48
2023-01-28T15:15:32.080Z,14.93
2023-01-28T15:18:19.961Z,15.20
2023-01-28T15:20:50.086Z,16.52
2023-01-28T15:23:23.302Z,16.40
2023-01-28T15:25:50.443Z,16.20
2023-01-28T15:28:30.938Z,14.73
2023-01-28T15:31:00.311Z,15.02
2023-01-28T15:33:27.944Z,15.10
2023-01-28T15:35:57.567Z,16.10
2023-01-28T15:38:28.385Z,19.00
2023-01-28T15:40:59.306Z,15.32
2023-01-28T15:43:32.547Z,18.35
2023-01-28T15:46:00.862Z,16.45
2023-01-28T15:48:34.385Z,20.63
2023-01-28T15:51:15.258Z,16.08
2023-01-28T15:53:45.347Z,17.05
2023-01-28T15:56:15.084Z,14.77
2023-01-28T15:58:43.419Z,15.60
2023-01-28T16:01:10.717Z,26.38
2023-01-28T16:03:40.877Z,15.80
2023-01-28T16:06:17.367Z,14.45
2023-01-28T16:08:59.527Z,14.40
2023-01-28T16:11:45.005Z,15.50
2023-01-28T16:14:31.883Z,15.57
2023-01-28T16:16:59.346Z,15.57
2023-01-28T16:19:35.415Z,17.20
2023-01-28T16:22:03.339Z,16.27
2023-01-28T16:24:33.419Z,16.17
2023-01-28T16:27:02.944Z,15.88
2023-01-28T16:29:31.243Z,14.95
2023-01-28T16:32:00.356Z,15.85
2023-01-28T16:34:28.256Z,15.40
2023-01-28T16:37:02.513Z,15.90
2023-01-28T16:39:30.977Z,16.05
2023-01-28T16:41:59.621Z,14.75
2023-01-28T16:44:27.400Z,16.50
2023-01-28T16:46:55.977Z,17.05
2023-01-28T16:49:24.808Z,16.10
2023-01-28T16:51:53.008Z,17.48
2023-01-28T16:54:20.447Z,15.40
2023-01-28T16:56:47.967Z,16.20
2023-01-28T16:59:16.673Z,14.32
2023-01-28T17:01:45.193Z,15.68
2023-01-28T17:04:13.519Z,15.45
2023-01-28T17:06:44.946Z,13.98
2023-01-28T17:09:13.765Z,13.68
2023-01-28T17:11:41.462Z,14.20
2023-01-28T17:14:10.082Z,13.38
2023-01-28T17:16:39.268Z,13.82
2023-01-28T17:19:06.825Z,13.18
2023-01-28T17:21:34.371Z,13.77
2023-01-28T17:24:02.499Z,13.68
2023-01-28T17:26:29.917Z,12.18
2023-01-28T17:28:57.243Z,13.43
2023-01-28T17:31:26.476Z,12.75
2023-01-28T17:33:55.420Z,12.88
2023-01-28T17:36:24.868Z,10.70
2023-01-28T17:38:53.612Z,9.10
2023-01-28T17:41:21.630Z,8.23
2023-01-28T17:43:56.181Z,8.60
2023-01-28T17:46:25.754Z,8.63
2023-01-28T17:48:53.808Z,7.43
2023-01-28T17:51:21.285Z,6.60
2023-01-28T17:53:50.695Z,5.57
2023-01-28T17:56:23.991Z,6.85
2023-01-28T17:58:53.989Z,6.70
2023-01-28T18:01:22.674Z,5.80
2023-01-28T18:03:50.221Z,10.82
2023-01-28T18:06:17.757Z,7.88
2023-01-28T18:08:45.651Z,7.95
2023-01-28T18:11:16.043Z,5.50
2023-01-28T18:13:43.778Z,6.45
2023-01-28T18:16:16.322Z,5.35
2023-01-28T18:18:44.184Z,5.75
2023-01-28T18:21:46.384Z,5.57
2023-01-28T18:24:18.205Z,5.20
2023-01-28T18:26:45.684Z,4.80
2023-01-28T18:29:17.092Z,5.78
2023-01-28T18:31:45.153Z,5.28
2023-01-28T18:34:14.079Z,5.40
2023-01-28T18:36:42.448Z,5.95
2023-01-28T18:39:14.990Z,12.23
2023-01-28T18:41:42.888Z,5.82
2023-01-28T18:44:12.541Z,5.20
2023-01-28T18:46:40.093Z,6.70
2023-01-28T18:49:08.005Z,6.20
2023-01-28T18:51:38.774Z,5.18
2023-01-28T18:54:11.108Z,6.32
2023-01-28T18:56:39.363Z,6.00
2023-01-28T18:59:10.280Z,6.72
2023-01-28T19:01:38.937Z,8.65
2023-01-28T19:04:06.533Z,8.30
2023-01-28T19:06:34.618Z,5.90
2023-01-28T19:09:08.744Z,5.22
2023-01-28T19:11:39.041Z,5.97
2023-01-28T19:14:06.906Z,5.50
2023-01-28T19:16:35.770Z,5.65
2023-01-28T19:19:03.935Z,6.10
2023-01-28T19:21:33.092Z,6.15
2023-01-28T19:24:03.561Z,8.05
2023-01-28T19:26:32.938Z,7.20
2023-01-28T19:29:00.692Z,7.75
2023-01-28T19:31:28.894Z,6.50
2023-01-28T19:33:59.935Z,7.15
2023-01-28T19:36:30.266Z,7.20
2023-01-28T19:39:00.050Z,7.35
2023-01-28T19:41:29.847Z,6.20
2023-01-28T19:43:57.587Z,6.20
2023-01-28T19:46:25.922Z,5.70
2023-01-28T19:48:54.307Z,6.85
2023-01-28T19:51:22.089Z,7.72
2023-01-28T19:53:54.839Z,6.95
2023-01-28T19:56:25.061Z,8.40
2023-01-28T19:58:54.873Z,7.20
2023-01-28T20:01:28.561Z,7.90
2023-01-28T20:03:59.962Z,8.18
2023-01-28T20:06:30.700Z,7.78
2023-01-28T20:09:04.091Z,5.93
2023-01-28T20:11:32.267Z,6.28
2023-01-28T20:14:00.305Z,7.35
2023-01-28T20:16:32.797Z,7.20
2023-01-28T20:19:06.291Z,6.10
2023-01-28T20:21:35.239Z,6.03
2023-01-28T20:24:04.129Z,6.75
2023-01-28T20:26:36.472Z,4.75
2023-01-28T20:29:18.380Z,5.00
2023-01-28T20:31:52.003Z,5.93
2023-01-28T20:34:28.692Z,5.15
2023-01-28T20:36:56.091Z,5.07
2023-01-28T20:39:23.713Z,5.25
2023-01-28T20:41:52.233Z,4.72
2023-01-28T20:44:19.735Z,5.82
2023-01-28T20:46:47.037Z,5.82
2023-01-28T20:49:15.867Z,5.90
2023-01-28T20:51:45.197Z,4.70
2023-01-28T20:54:15.493Z,4.85
2023-01-28T20:56:43.273Z,5.15
2023-01-28T20:59:11.917Z,5.25
2023-01-28T21:01:39.365Z,5.45
2023-01-28T21:04:09.012Z,5.18
2023-01-28T21:06:39.213Z,5.65
2023-01-28T21:09:07.592Z,5.95
2023-01-28T21:11:35.010Z,5.93
2023-01-28T21:14:02.794Z,5.95
2023-01-28T21:16:30.321Z,5.47
2023-01-28T21:18:57.676Z,4.90
2023-01-28T21:21:27.422Z,4.95
2023-01-28T21:23:58.784Z,5.68
2023-01-28T21:26:26.818Z,5.35
2023-01-28T21:28:54.636Z,6.15
2023-01-28T21:31:25.297Z,5.80
2023-01-28T21:33:55.449Z,6.32
2023-01-28T21:36:24.758Z,5.90
2023-01-28T21:38:58.441Z,5.15
2023-01-28T21:41:26.014Z,4.90
2023-01-28T21:43:54.542Z,5.25
2023-01-28T21:46:23.926Z,5.43
2023-01-28T21:48:56.047Z,5.32
2023-01-28T21:51:35.992Z,4.85
2023-01-28T21:54:09.960Z,4.60
2023-01-28T21:56:37.201Z,5.63
2023-01-28T21:59:23.154Z,5.40
2023-01-28T22:01:50.538Z,7.18
2023-01-28T22:04:17.739Z,6.25
2023-01-28T22:06:45.389Z,5.28
2023-01-28T22:09:13.852Z,5.57
2023-01-28T22:11:42.579Z,6.13
2023-01-28T22:14:09.964Z,5.55
2023-01-28T22:16:37.210Z,4.63
2023-01-28T22:19:04.577Z,4.63
2023-01-28T22:21:31.679Z,6.43
2023-01-28T22:23:58.776Z,5.20
2023-01-28T22:26:25.898Z,6.03
2023-01-28T22:28:52.892Z,5.20
2023-01-28T22:31:20.210Z,5.35
2023-01-28T22:33:47.258Z,5.47
2023-01-28T22:36:15.969Z,5.00
2023-01-28T22:38:44.992Z,6.20
2023-01-28T22:41:20.050Z,5.65
2023-01-28T22:43:47.521Z,5.25
2023-01-28T22:46:15.383Z,5.22
2023-01-28T22:48:42.620Z,5.15
2023-01-28T22:51:16.359Z,5.88
2023-01-28T22:53:44.383Z,5.32
2023-01-28T22:56:11.871Z,5.43
2023-01-28T22:58:39.186Z,5.90
2023-01-28T23:01:06.981Z,5.50
2023-01-28T23:03:34.872Z,5.15
2023-01-28T23:06:04.782Z,5.20
2023-01-28T23:08:32.897Z,5.70
2023-01-28T23:11:02.538Z,5.05
2023-01-28T23:13:53.728Z,4.90
2023-01-28T23:16:39.159Z,4.53
2023-01-28T23:19:24.701Z,4.72
2023-01-28T23:22:10.403Z,4.70
2023-01-28T23:24:37.456Z,4.72
2023-01-28T23:27:04.554Z,4.40
2023-01-28T23:29:32.532Z,3.97
2023-01-28T23:32:04.058Z,4.65
2023-01-28T23:34:46.190Z,5.38
2023-01-28T23:37:14.077Z,3.90
2023-01-28T23:39:42.653Z,5.15
2023-01-28T23:42:15.708Z,4.53
2023-01-28T23:44:43.142Z,5.00
2023-01-28T23:47:10.903Z,5.00
2023-01-28T23:49:38.713Z,5.13
2023-01-28T23:52:07.427Z,4.50
2023-01-28T23:54:35.080Z,5.22
2023-01-28T23:57:03.149Z,4.35
2023-01-28T23:59:30.398Z,5.15
